createdAt,value
2023-04-27T00:00:50.586Z,100275.91
2023-04-27T00:03:18.799Z,100273.63
2023-04-27T00:05:47.704Z,100280.03
2023-04-27T00:08:17.314Z,100266.41
2023-04-27T00:10:45.543Z,100269.03
2023-04-27T00:13:14.069Z,100263.31
2023-04-27T00:15:42.130Z,100271.16
2023-04-27T00:18:12.358Z,100269.91
2023-04-27T00:20:41.407Z,100254.41
2023-04-27T00:23:09.884Z,100262.66
2023-04-27T00:25:39.822Z,100258.28
2023-04-27T00:28:09.696Z,100253.66
2023-04-27T00:30:37.850Z,100253.66
2023-04-27T00:33:06.118Z,100258.97
2023-04-27T00:35:35.040Z,100250.22
2023-04-27T00:38:04.558Z,100247.09
2023-04-27T00:40:35.108Z,100244.41
2023-04-27T00:43:05.178Z,100243.72
2023-04-27T00:45:33.425Z,100252.44
2023-04-27T00:48:02.895Z,100246.69
2023-04-27T00:50:32.027Z,100248.22
2023-04-27T00:53:01.951Z,100249.13
2023-04-27T00:55:30.427Z,100248.91
2023-04-27T00:57:58.972Z,100250.41
2023-04-27T01:00:28.853Z,100251.41
2023-04-27T01:02:58.017Z,100261.16
2023-04-27T01:05:26.639Z,100257.75
2023-04-27T01:07:54.740Z,100259.88
2023-04-27T01:10:22.929Z,100257.13
2023-04-27T01:12:51.218Z,100255.88
2023-04-27T01:15:19.392Z,100258.41
2023-04-27T01:17:49.964Z,100258.47
2023-04-27T01:20:19.952Z,100263.44
2023-04-27T01:22:48.012Z,100269.03
2023-04-27T01:25:18.198Z,100264.41
2023-04-27T01:27:46.326Z,100273.69
2023-04-27T01:30:14.313Z,100270.38
2023-04-27T01:32:42.304Z,100260.09
2023-04-27T01:35:11.071Z,100270.81
2023-04-27T01:37:39.264Z,100266.53
2023-04-27T01:40:07.666Z,100269.34
2023-04-27T01:42:37.022Z,100272.41
2023-04-27T01:45:05.511Z,100270.69
2023-04-27T01:47:33.605Z,100273.53
2023-04-27T01:50:01.699Z,100272.69
2023-04-27T01:55:15.538Z,100276.75
2023-04-27T01:57:45.306Z,100273.00
2023-04-27T02:00:14.347Z,100277.13
2023-04-27T02:02:53.798Z,100282.84
2023-04-27T02:05:24.455Z,100276.72
2023-04-27T02:07:54.192Z,100274.09
2023-04-27T02:10:23.591Z,100279.38
2023-04-27T02:12:58.192Z,100284.03
2023-04-27T02:15:27.032Z,100286.94
2023-04-27T02:17:55.009Z,100285.38
2023-04-27T02:20:23.213Z,100286.41
2023-04-27T02:22:51.410Z,100286.91
2023-04-27T02:25:20.004Z,100290.72
2023-04-27T02:27:48.006Z,100287.00
2023-04-27T02:30:18.681Z,100286.28
2023-04-27T02:32:47.735Z,100295.19
2023-04-27T02:35:15.567Z,100292.28
2023-04-27T02:37:43.490Z,100295.06
2023-04-27T02:40:11.866Z,100291.84
2023-04-27T02:42:40.013Z,100299.03
2023-04-27T02:45:08.632Z,100308.34
2023-04-27T02:47:39.339Z,100307.59
2023-04-27T02:50:07.952Z,100312.28
2023-04-27T02:52:36.904Z,100295.38
2023-04-27T02:55:04.878Z,100294.06
2023-04-27T02:57:32.983Z,100295.50
2023-04-27T03:00:02.794Z,100296.22
2023-04-27T03:02:32.525Z,100295.06
2023-04-27T03:05:02.645Z,100290.25
2023-04-27T03:07:31.736Z,100287.00
2023-04-27T03:09:59.521Z,100295.44
2023-04-27T03:12:31.331Z,100281.84
2023-04-27T03:15:01.253Z,100286.34
2023-04-27T03:17:29.694Z,100292.13
2023-04-27T03:19:57.954Z,100286.38
2023-04-27T03:22:27.660Z,100282.16
2023-04-27T03:24:56.115Z,100287.00
2023-04-27T03:27:24.299Z,100285.69
2023-04-27T03:29:53.345Z,100283.16
2023-04-27T03:32:21.749Z,100292.03
2023-04-27T03:34:50.631Z,100286.09
2023-04-27T03:37:18.946Z,100289.81
2023-04-27T03:39:49.069Z,100285.34
2023-04-27T03:42:17.569Z,100286.41
2023-04-27T03:44:45.882Z,100278.72
2023-04-27T03:47:13.808Z,100273.25
2023-04-27T03:49:42.077Z,100272.16
2023-04-27T03:52:10.447Z,100279.13
2023-04-27T03:54:38.702Z,100279.50
2023-04-27T03:57:08.432Z,100286.66
2023-04-27T03:59:37.369Z,100295.53
2023-04-27T04:02:06.822Z,100297.63
2023-04-27T04:04:35.376Z,100289.38
2023-04-27T04:07:04.042Z,100297.78
2023-04-27T04:09:32.439Z,100286.03
2023-04-27T04:12:02.001Z,100294.78
2023-04-27T04:14:32.213Z,100289.78
2023-04-27T04:17:02.073Z,100291.25
2023-04-27T04:19:30.316Z,100297.81
2023-04-27T04:21:59.320Z,100290.09
2023-04-27T04:24:28.309Z,100294.41
2023-04-27T04:26:57.028Z,100295.47
2023-04-27T04:29:25.847Z,100295.13
2023-04-27T04:31:56.849Z,100295.03
2023-04-27T04:34:25.970Z,100304.53
2023-04-27T04:36:57.426Z,100303.47
2023-04-27T04:39:27.295Z,100296.97
2023-04-27T04:41:55.568Z,100286.19
2023-04-27T04:44:25.659Z,100291.03
2023-04-27T04:46:55.660Z,100296.72
2023-04-27T04:49:27.055Z,100298.31
2023-04-27T04:51:55.157Z,100301.03
2023-04-27T04:54:23.223Z,100308.25
2023-04-27T04:56:51.469Z,100308.69
2023-04-27T04:59:19.731Z,100308.69
2023-04-27T05:01:48.026Z,100307.91
2023-04-27T05:04:19.076Z,100315.78
2023-04-27T05:06:47.556Z,100315.00
2023-04-27T05:09:15.494Z,100310.84
2023-04-27T05:11:43.651Z,100309.38
2023-04-27T05:14:11.758Z,100307.72
2023-04-27T05:16:39.711Z,100310.03
2023-04-27T05:19:08.503Z,100326.41
2023-04-27T05:21:38.167Z,100332.34
2023-04-27T05:24:06.433Z,100333.00
2023-04-27T05:26:34.312Z,100334.06
2023-04-27T05:29:09.374Z,100336.16
2023-04-27T05:31:42.763Z,100340.16
2023-04-27T05:34:11.121Z,100343.50
2023-04-27T05:36:40.750Z,100341.91
2023-04-27T05:39:09.311Z,100342.59
2023-04-27T05:41:37.268Z,100351.34
2023-04-27T05:44:05.486Z,100351.91
2023-04-27T05:46:34.415Z,100349.84
2023-04-27T05:49:03.630Z,100354.47
2023-04-27T05:51:33.341Z,100349.94
2023-04-27T05:54:03.796Z,100343.19
2023-04-27T05:56:32.003Z,100343.94
2023-04-27T05:59:02.538Z,100346.97
2023-04-27T06:01:31.306Z,100348.00
2023-04-27T06:04:02.049Z,100357.03
2023-04-27T06:06:32.262Z,100354.44
2023-04-27T06:09:00.451Z,100363.16
2023-04-27T06:11:30.964Z,100361.66
2023-04-27T06:13:59.331Z,100368.00
2023-04-27T06:16:27.761Z,100369.81
2023-04-27T06:18:57.153Z,100363.94
2023-04-27T06:21:25.850Z,100374.91
2023-04-27T06:23:54.131Z,100381.34
2023-04-27T06:26:23.537Z,100385.59
2023-04-27T06:28:54.550Z,100375.69
2023-04-27T06:31:22.998Z,100374.13
2023-04-27T06:33:51.826Z,100385.88
2023-04-27T06:36:20.040Z,100386.00
2023-04-27T06:38:48.679Z,100389.31
2023-04-27T06:41:17.636Z,100397.84
2023-04-27T06:43:45.954Z,100393.38
2023-04-27T06:46:16.766Z,100393.38
2023-04-27T06:48:45.346Z,100390.06
2023-04-27T06:51:14.179Z,100387.63
2023-04-27T06:53:42.589Z,100389.75
2023-04-27T06:56:12.997Z,100387.09
2023-04-27T06:58:42.665Z,100388.94
2023-04-27T07:01:11.522Z,100391.75
2023-04-27T07:03:41.696Z,100391.19
2023-04-27T07:06:10.475Z,100397.09
2023-04-27T07:08:39.012Z,100391.19
2023-04-27T07:11:07.595Z,100386.63
2023-04-27T07:13:36.159Z,100387.50
2023-04-27T07:16:04.598Z,100392.66
2023-04-27T07:18:33.472Z,100392.44
2023-04-27T07:21:02.879Z,100394.63
2023-04-27T07:23:31.344Z,100402.34
2023-04-27T07:25:59.437Z,100395.19
2023-04-27T07:28:29.843Z,100397.53
2023-04-27T07:30:59.078Z,100392.56
2023-04-27T07:33:27.913Z,100395.56
2023-04-27T07:35:56.770Z,100391.91
2023-04-27T07:38:26.664Z,100393.97
2023-04-27T07:40:54.937Z,100388.94
2023-04-27T07:43:24.053Z,100384.22
2023-04-27T07:45:52.218Z,100388.91
2023-04-27T07:48:20.586Z,100392.16
2023-04-27T07:50:48.875Z,100383.84
2023-04-27T07:53:16.784Z,100393.66
2023-04-27T07:55:46.450Z,100389.16
2023-04-27T07:58:14.480Z,100382.28
2023-04-27T08:00:42.685Z,100388.91
2023-04-27T08:03:11.094Z,100383.41
2023-04-27T08:05:39.575Z,100388.06
2023-04-27T08:08:08.798Z,100388.09
2023-04-27T08:10:38.241Z,100383.44
2023-04-27T08:13:10.022Z,100394.63
2023-04-27T08:15:38.055Z,100385.94
2023-04-27T08:18:06.145Z,100373.50
2023-04-27T08:20:34.359Z,100375.16
2023-04-27T08:23:02.761Z,100375.00
2023-04-27T08:25:31.120Z,100378.03
2023-04-27T08:27:59.155Z,100377.88
2023-04-27T08:30:28.772Z,100377.44
2023-04-27T08:32:57.019Z,100390.03
2023-04-27T08:35:25.726Z,100377.59
2023-04-27T08:37:54.393Z,100373.00
2023-04-27T08:40:24.926Z,100365.28
2023-04-27T08:42:56.783Z,100363.31
2023-04-27T08:45:25.285Z,100373.13
2023-04-27T08:47:55.049Z,100367.88
2023-04-27T08:50:24.460Z,100362.56
2023-04-27T08:52:52.381Z,100382.13
2023-04-27T08:55:20.400Z,100368.00
2023-04-27T08:57:58.010Z,100375.94
2023-04-27T09:00:26.733Z,100376.94
2023-04-27T09:02:56.435Z,100373.47
2023-04-27T09:05:26.193Z,100387.84
2023-04-27T09:08:00.882Z,100381.47
2023-04-27T09:10:30.072Z,100372.63
2023-04-27T09:12:58.753Z,100383.34
2023-04-27T09:15:26.702Z,100375.06
2023-04-27T09:17:57.414Z,100367.63
2023-04-27T09:20:27.212Z,100371.19
2023-04-27T09:22:58.862Z,100369.03
2023-04-27T09:25:28.032Z,100374.31
2023-04-27T09:27:56.255Z,100368.59
2023-04-27T09:30:24.048Z,100362.97
2023-04-27T09:32:53.808Z,100361.97
2023-04-27T09:35:26.402Z,100353.97
2023-04-27T09:37:54.609Z,100360.31
2023-04-27T09:40:26.481Z,100353.41
2023-04-27T09:42:55.598Z,100351.97
2023-04-27T09:45:24.492Z,100348.91
2023-04-27T09:47:52.856Z,100344.16
2023-04-27T09:50:21.970Z,100347.31
2023-04-27T09:52:51.289Z,100347.31
2023-04-27T09:55:21.183Z,100346.25
2023-04-27T09:57:54.829Z,100353.19
2023-04-27T10:00:29.592Z,100342.22
2023-04-27T10:03:04.309Z,100344.09
2023-04-27T10:05:39.721Z,100335.28
2023-04-27T10:08:11.720Z,100340.78
2023-04-27T10:10:48.843Z,100332.59
2023-04-27T10:13:23.708Z,100339.78
2023-04-27T10:15:52.833Z,100344.69
2023-04-27T10:18:28.197Z,100344.25
2023-04-27T10:20:56.001Z,100344.34
2023-04-27T10:23:25.965Z,100355.38
2023-04-27T10:25:54.558Z,100345.78
2023-04-27T10:28:22.754Z,100339.97
2023-04-27T10:30:51.056Z,100346.63
2023-04-27T10:33:20.478Z,100346.03
2023-04-27T10:35:55.995Z,100356.69
2023-04-27T10:38:29.532Z,100345.56
2023-04-27T10:40:58.561Z,100339.00
2023-04-27T10:43:27.528Z,100332.94
2023-04-27T10:45:56.085Z,100336.63
2023-04-27T10:48:24.293Z,100329.56
2023-04-27T10:50:52.680Z,100333.41
2023-04-27T10:53:21.050Z,100335.69
2023-04-27T10:55:55.789Z,100335.75
2023-04-27T10:58:26.677Z,100330.41
2023-04-27T11:01:00.204Z,100322.91
2023-04-27T11:03:28.201Z,100316.19
2023-04-27T11:06:01.441Z,100317.38
2023-04-27T11:08:30.796Z,100320.19
2023-04-27T11:10:59.997Z,100322.66
2023-04-27T11:13:28.396Z,100322.41
2023-04-27T11:15:56.498Z,100309.63
2023-04-27T11:18:25.315Z,100309.13
2023-04-27T11:20:54.874Z,100316.34
2023-04-27T11:23:26.915Z,100303.88
2023-04-27T11:25:55.250Z,100303.00
2023-04-27T11:28:25.249Z,100310.03
2023-04-27T11:30:59.487Z,100297.63
2023-04-27T11:33:27.866Z,100297.47
2023-04-27T11:35:56.468Z,100297.16
2023-04-27T11:38:24.679Z,100299.59
2023-04-27T11:41:02.428Z,100294.00
2023-04-27T11:43:32.258Z,100284.13
2023-04-27T11:46:03.698Z,100283.81
2023-04-27T11:48:31.667Z,100284.75
2023-04-27T11:51:01.322Z,100290.06
2023-04-27T11:53:34.166Z,100281.94
2023-04-27T11:56:03.529Z,100275.50
2023-04-27T11:58:34.252Z,100273.78
2023-04-27T12:01:02.274Z,100276.91
2023-04-27T12:03:31.049Z,100274.50
2023-04-27T12:06:07.689Z,100275.97
2023-04-27T12:08:47.933Z,100285.25
2023-04-27T12:11:15.714Z,100277.66
2023-04-27T12:13:45.211Z,100268.56
2023-04-27T12:16:13.896Z,100281.84
2023-04-27T12:18:41.829Z,100272.25
2023-04-27T12:21:10.429Z,100280.66
2023-04-27T12:23:38.808Z,100267.00
2023-04-27T12:26:07.051Z,100261.44
2023-04-27T12:28:35.061Z,100258.34
2023-04-27T12:31:05.195Z,100252.84
2023-04-27T12:33:33.358Z,100267.78
2023-04-27T12:36:01.406Z,100260.69
2023-04-27T12:38:29.482Z,100257.47
2023-04-27T12:40:57.521Z,100258.56
2023-04-27T12:43:25.542Z,100255.00
2023-04-27T12:45:53.638Z,100248.97
2023-04-27T12:48:23.694Z,100243.81
2023-04-27T12:50:51.810Z,100237.00
2023-04-27T12:53:21.911Z,100231.13
2023-04-27T12:55:50.080Z,100226.81
2023-04-27T12:58:18.099Z,100231.09
2023-04-27T13:00:46.513Z,100231.13
2023-04-27T13:03:14.834Z,100241.66
2023-04-27T13:05:46.035Z,100243.56
2023-04-27T13:08:14.824Z,100237.09
2023-04-27T13:10:42.778Z,100235.06
2023-04-27T13:13:11.158Z,100231.72
2023-04-27T13:15:39.215Z,100224.25
2023-04-27T13:18:07.360Z,100217.25
2023-04-27T13:20:35.394Z,100214.59
2023-04-27T13:23:05.962Z,100219.09
2023-04-27T13:25:34.349Z,100203.75
2023-04-27T13:28:02.302Z,100220.88
2023-04-27T13:30:31.450Z,100228.69
2023-04-27T13:33:10.431Z,100224.00
2023-04-27T13:35:46.869Z,100224.19
2023-04-27T13:38:16.500Z,100219.94
2023-04-27T13:40:44.345Z,100217.34
2023-04-27T13:43:12.343Z,100213.75
2023-04-27T13:45:42.651Z,100227.56
2023-04-27T13:48:10.557Z,100220.31
2023-04-27T13:50:38.917Z,100214.59
2023-04-27T13:53:07.104Z,100214.50
2023-04-27T13:55:37.227Z,100220.59
2023-04-27T13:58:05.872Z,100215.47
2023-04-27T14:00:34.804Z,100230.44
2023-04-27T14:03:04.736Z,100216.25
2023-04-27T14:05:33.420Z,100215.66
2023-04-27T14:08:01.407Z,100212.06
2023-04-27T14:10:29.836Z,100209.28
2023-04-27T14:12:59.227Z,100207.66
2023-04-27T14:15:27.571Z,100221.84
2023-04-27T14:17:55.720Z,100222.44
2023-04-27T14:20:24.624Z,100228.47
2023-04-27T14:22:52.572Z,100235.19
2023-04-27T14:25:20.609Z,100223.38
2023-04-27T14:27:48.616Z,100221.16
2023-04-27T14:30:18.027Z,100226.88
2023-04-27T14:32:46.347Z,100234.19
2023-04-27T14:35:14.129Z,100216.97
2023-04-27T14:37:42.184Z,100211.59
2023-04-27T14:40:11.518Z,100204.38
2023-04-27T14:42:39.547Z,100200.81
2023-04-27T14:45:08.082Z,100197.19
2023-04-27T14:50:06.771Z,100212.81
2023-04-27T14:52:34.728Z,100226.25
2023-04-27T14:55:02.528Z,100226.53
2023-04-27T14:57:31.238Z,100210.22
2023-04-27T14:59:59.924Z,100217.25
2023-04-27T15:02:28.208Z,100235.28
2023-04-27T15:04:57.891Z,100208.34
2023-04-27T15:07:25.911Z,100195.25
2023-04-27T15:09:54.308Z,100201.53
2023-04-27T15:12:22.257Z,100194.19
2023-04-27T15:14:52.493Z,100207.44
2023-04-27T15:17:20.468Z,100198.22
2023-04-27T15:19:48.520Z,100203.31
2023-04-27T15:22:17.638Z,100201.47
2023-04-27T15:24:45.415Z,100189.13
2023-04-27T15:27:13.337Z,100186.88
2023-04-27T15:29:41.980Z,100188.78
2023-04-27T15:32:10.005Z,100185.88
2023-04-27T15:34:38.034Z,100178.78
2023-04-27T15:37:05.900Z,100171.50
2023-04-27T15:39:35.135Z,100168.91
2023-04-27T15:42:04.739Z,100161.94
2023-04-27T15:44:32.382Z,100159.59
2023-04-27T15:47:00.403Z,100157.69
2023-04-27T15:49:28.764Z,100139.03
2023-04-27T15:51:56.501Z,100147.06
2023-04-27T15:54:24.425Z,100144.19
2023-04-27T15:56:53.664Z,100145.53
2023-04-27T15:59:21.583Z,100147.03
2023-04-27T16:01:49.438Z,100142.38
2023-04-27T16:04:17.621Z,100130.75
2023-04-27T16:06:46.952Z,100131.59
2023-04-27T16:09:14.957Z,100129.19
2023-04-27T16:11:43.353Z,100129.53
2023-04-27T16:14:12.840Z,100117.69
2023-04-27T16:16:40.796Z,100131.03
2023-04-27T16:19:09.004Z,100126.59
2023-04-27T16:21:36.909Z,100121.69
2023-04-27T16:24:05.235Z,100132.09
2023-04-27T16:26:33.173Z,100111.56
2023-04-27T16:29:01.023Z,100117.03
2023-04-27T16:31:30.374Z,100111.41
2023-04-27T16:33:58.332Z,100116.44
2023-04-27T16:36:26.275Z,100111.03
2023-04-27T16:38:56.160Z,100107.41
2023-04-27T16:41:24.350Z,100110.03
2023-04-27T16:43:52.352Z,100116.09
2023-04-27T16:46:20.515Z,100117.69
2023-04-27T16:48:50.110Z,100116.94
2023-04-27T16:51:18.277Z,100116.91
2023-04-27T16:53:46.418Z,100120.19
2023-04-27T16:56:14.787Z,100113.09
2023-04-27T16:58:43.014Z,100113.22
2023-04-27T17:01:11.262Z,100121.34
2023-04-27T17:03:39.404Z,100119.63
2023-04-27T17:06:09.142Z,100119.09
2023-04-27T17:08:37.404Z,100118.84
2023-04-27T17:11:08.924Z,100124.59
2023-04-27T17:13:37.045Z,100114.50
2023-04-27T17:16:05.754Z,100108.22
2023-04-27T17:18:34.544Z,100102.63
2023-04-27T17:21:02.878Z,100103.00
2023-04-27T17:23:33.847Z,100095.34
2023-04-27T17:26:01.997Z,100090.53
2023-04-27T17:28:30.713Z,100093.06
2023-04-27T17:30:58.803Z,100086.13
2023-04-27T17:33:27.455Z,100090.41
2023-04-27T17:35:56.060Z,100091.63
2023-04-27T17:38:24.372Z,100089.34
2023-04-27T17:40:54.335Z,100089.59
2023-04-27T17:43:22.920Z,100082.44
2023-04-27T17:45:51.258Z,100086.06
2023-04-27T17:48:19.645Z,100089.53
2023-04-27T17:50:47.891Z,100088.75
2023-04-27T17:53:16.070Z,100079.09
2023-04-27T17:55:45.412Z,100077.16
2023-04-27T17:58:15.591Z,100082.81
2023-04-27T18:00:44.336Z,100078.66
2023-04-27T18:03:13.082Z,100077.31
2023-04-27T18:05:41.355Z,100087.78
2023-04-27T18:08:09.699Z,100083.97
2023-04-27T18:10:37.595Z,100079.69
2023-04-27T18:13:06.211Z,100081.97
2023-04-27T18:15:37.274Z,100064.78
2023-04-27T18:18:06.512Z,100071.69
2023-04-27T18:20:39.782Z,100064.94
2023-04-27T18:23:07.694Z,100063.91
2023-04-27T18:25:35.933Z,100060.59
2023-04-27T18:28:05.963Z,100070.97
2023-04-27T18:30:34.186Z,100066.38
2023-04-27T18:33:03.977Z,100072.31
2023-04-27T18:35:32.373Z,100073.69
2023-04-27T18:38:00.733Z,100063.94
2023-04-27T18:40:28.653Z,100063.22
2023-04-27T18:42:56.661Z,100059.38
2023-04-27T18:45:24.867Z,100065.28
2023-04-27T18:47:53.590Z,100056.88
2023-04-27T18:50:23.427Z,100058.25
2023-04-27T18:52:51.509Z,100059.91
2023-04-27T18:55:19.595Z,100055.22
2023-04-27T18:57:47.589Z,100063.22
2023-04-27T19:00:15.973Z,100067.09
2023-04-27T19:02:44.062Z,100064.59
2023-04-27T19:05:13.683Z,100058.97
2023-04-27T19:07:44.290Z,100062.09
2023-04-27T19:10:13.152Z,100066.09
2023-04-27T19:12:41.273Z,100062.94
2023-04-27T19:15:09.622Z,100061.84
2023-04-27T19:17:39.053Z,100067.44
2023-04-27T19:20:08.512Z,100069.06
2023-04-27T19:22:37.119Z,100067.94
2023-04-27T19:25:11.600Z,100064.88
2023-04-27T19:27:39.752Z,100062.84
2023-04-27T19:30:08.824Z,100064.59
2023-04-27T19:32:36.976Z,100061.69
2023-04-27T19:35:05.204Z,100063.34
2023-04-27T19:37:33.505Z,100069.53
2023-04-27T19:40:01.643Z,100063.88
2023-04-27T19:42:31.802Z,100070.94
2023-04-27T19:45:01.144Z,100062.16
2023-04-27T19:47:29.541Z,100060.63
2023-04-27T19:49:58.583Z,100056.53
2023-04-27T19:52:26.839Z,100058.97
2023-04-27T19:54:56.217Z,100063.50
2023-04-27T19:57:25.040Z,100063.06
2023-04-27T19:59:54.658Z,100067.59
2023-04-27T20:02:59.408Z,100065.91
2023-04-27T20:05:45.881Z,100061.31
2023-04-27T20:08:14.019Z,100062.66
2023-04-27T20:10:42.023Z,100057.28
2023-04-27T20:13:09.854Z,100054.81
2023-04-27T20:15:39.193Z,100057.50
2023-04-27T20:18:07.143Z,100057.69
2023-04-27T20:20:35.051Z,100052.09
2023-04-27T20:23:21.722Z,100058.94
2023-04-27T20:25:49.925Z,100056.59
2023-04-27T20:31:58.254Z,100045.63
2023-04-27T20:34:46.272Z,100045.25
2023-04-27T20:37:16.919Z,100037.25
2023-04-27T20:39:45.556Z,100050.81
2023-04-27T20:42:14.452Z,100039.25
2023-04-27T20:44:42.739Z,100027.53
2023-04-27T20:47:10.733Z,100036.31
2023-04-27T20:49:39.066Z,100029.63
2023-04-27T20:52:08.750Z,100022.78
2023-04-27T20:54:36.855Z,100024.31
2023-04-27T20:57:08.931Z,100027.78
2023-04-27T20:59:37.459Z,100023.97
2023-04-27T21:02:05.853Z,100031.22
2023-04-27T21:04:34.137Z,100029.91
2023-04-27T21:07:02.286Z,100035.63
2023-04-27T21:13:47.435Z,100020.09
2023-04-27T21:24:32.751Z,100024.03
2023-04-27T21:35:17.790Z,100011.03
2023-04-27T21:38:40.566Z,100011.56
2023-04-27T21:45:44.610Z,99988.06
2023-04-27T21:49:07.247Z,99995.03
2023-04-27T21:52:12.860Z,99989.84
2023-04-27T21:54:59.678Z,99995.75
2023-04-27T21:57:46.531Z,99985.44
2023-04-27T22:00:33.920Z,99992.88
2023-04-27T22:03:02.807Z,99991.16
2023-04-27T22:05:50.466Z,99984.75
2023-04-27T22:08:37.688Z,99995.28
2023-04-27T22:11:08.033Z,99990.72
2023-04-27T22:14:13.986Z,99987.88
2023-04-27T22:16:42.400Z,99992.06
2023-04-27T22:19:30.840Z,99994.06
2023-04-27T22:21:58.997Z,99977.81
2023-04-27T22:24:27.226Z,99981.63
2023-04-27T22:26:57.757Z,99975.19
2023-04-27T22:29:26.890Z,99971.44
2023-04-27T22:31:55.480Z,99971.28
2023-04-27T22:34:23.616Z,99966.06
2023-04-27T22:36:51.610Z,99967.06
2023-04-27T22:39:19.676Z,99968.59
2023-04-27T22:41:47.969Z,99962.88
2023-04-27T22:44:17.729Z,99959.25
2023-04-27T22:46:46.310Z,99965.03
2023-04-27T22:49:15.161Z,99954.56
2023-04-27T22:51:43.787Z,99961.06
2023-04-27T22:54:13.109Z,99967.81
2023-04-27T22:56:41.124Z,99962.25
2023-04-27T22:59:08.856Z,99958.59
2023-04-27T23:01:38.265Z,99950.00
2023-04-27T23:04:07.591Z,99953.28
2023-04-27T23:06:35.838Z,99938.09
2023-04-27T23:09:03.755Z,99934.34
2023-04-27T23:11:31.420Z,99929.88
2023-04-27T23:13:59.471Z,99930.06
2023-04-27T23:16:27.507Z,99925.22
2023-04-27T23:18:56.654Z,99926.97
2023-04-27T23:21:26.546Z,99928.72
2023-04-27T23:23:54.549Z,99920.97
2023-04-27T23:26:22.220Z,99926.38
2023-04-27T23:28:50.267Z,99926.00
2023-04-27T23:31:18.102Z,99931.97
2023-04-27T23:33:46.032Z,99925.00
2023-04-27T23:36:15.261Z,99916.72
2023-04-27T23:38:43.289Z,99923.19
2023-04-27T23:41:11.196Z,99919.59
2023-04-27T23:43:39.603Z,99915.59
2023-04-27T23:46:07.799Z,99926.16
2023-04-27T23:48:36.640Z,99916.91
2023-04-27T23:51:05.481Z,99908.47
2023-04-27T23:53:34.868Z,99902.47
2023-04-27T23:56:02.912Z,99904.84
2023-04-27T23:58:31.124Z,99908.28
